createdAt,value
2022-12-07T00:02:08.168Z,50.66
2022-12-07T00:05:11.311Z,50.83
2022-12-07T00:08:15.772Z,50.71
2022-12-07T00:11:20.562Z,50.82
2022-12-07T00:14:24.059Z,50.68
2022-12-07T00:17:27.027Z,50.58
2022-12-07T00:20:29.974Z,50.54
2022-12-07T00:23:35.216Z,50.67
2022-12-07T00:26:40.078Z,50.66
2022-12-07T00:29:43.043Z,50.51
2022-12-07T00:32:46.019Z,50.61
2022-12-07T00:35:49.104Z,50.78
2022-12-07T00:38:54.066Z,50.64
2022-12-07T00:41:56.982Z,50.73
2022-12-07T00:44:59.978Z,50.70
2022-12-07T00:48:02.928Z,50.58
2022-12-07T00:51:06.739Z,50.75
2022-12-07T00:54:11.163Z,50.55
2022-12-07T00:57:14.227Z,50.52
2022-12-07T01:00:17.576Z,50.65
2022-12-07T01:03:20.636Z,50.63
2022-12-07T01:06:25.440Z,50.54
2022-12-07T01:09:29.810Z,50.49
2022-12-07T01:12:32.868Z,50.42
2022-12-07T01:15:35.815Z,50.64
2022-12-07T01:18:39.014Z,50.61
2022-12-07T01:21:42.072Z,50.71
2022-12-07T01:24:47.720Z,50.59
2022-12-07T01:27:50.845Z,50.59
2022-12-07T01:30:58.894Z,50.52
2022-12-07T01:34:02.659Z,50.50
2022-12-07T01:37:05.639Z,50.50
2022-12-07T01:40:12.706Z,50.51
2022-12-07T01:43:20.359Z,50.53
2022-12-07T01:46:23.361Z,50.42
2022-12-07T01:49:33.900Z,50.55
2022-12-07T01:52:39.879Z,50.49
2022-12-07T01:55:48.041Z,50.55
2022-12-07T01:58:51.554Z,50.59
2022-12-07T02:01:55.346Z,50.51
2022-12-07T02:04:59.965Z,50.63
2022-12-07T02:08:04.471Z,50.56
2022-12-07T02:11:10.070Z,50.54
2022-12-07T02:14:13.159Z,50.37
2022-12-07T02:17:26.459Z,50.45
2022-12-07T02:20:33.547Z,50.34
2022-12-07T02:23:56.049Z,50.40
2022-12-07T02:27:36.772Z,50.35
2022-12-07T02:30:47.064Z,50.33
2022-12-07T02:33:56.711Z,50.29
2022-12-07T02:37:05.571Z,50.46
2022-12-07T02:40:13.269Z,50.47
2022-12-07T02:43:20.755Z,50.54
2022-12-07T02:46:28.237Z,50.46
2022-12-07T02:49:32.701Z,50.41
2022-12-07T02:52:35.669Z,50.38
2022-12-07T02:55:43.613Z,50.37
2022-12-07T02:58:56.922Z,50.19
2022-12-07T03:02:13.115Z,50.18
2022-12-07T03:05:30.165Z,50.25
2022-12-07T03:08:45.340Z,50.24
2022-12-07T03:11:52.093Z,50.35
2022-12-07T03:15:03.477Z,50.16
2022-12-07T03:18:10.268Z,50.34
2022-12-07T03:21:23.338Z,50.23
2022-12-07T03:24:30.274Z,50.12
2022-12-07T03:27:36.322Z,50.09
2022-12-07T03:30:46.615Z,50.11
2022-12-07T03:33:59.478Z,50.08
2022-12-07T03:37:07.879Z,49.93
2022-12-07T03:40:17.914Z,50.25
2022-12-07T03:43:21.818Z,50.04
2022-12-07T03:46:35.305Z,50.02
2022-12-07T03:49:45.915Z,50.01
2022-12-07T03:52:54.731Z,50.01
2022-12-07T03:55:59.573Z,49.98
2022-12-07T03:59:02.574Z,50.08
2022-12-07T04:02:08.369Z,49.92
2022-12-07T04:05:13.343Z,50.02
2022-12-07T04:08:16.779Z,49.90
2022-12-07T04:11:19.799Z,49.94
2022-12-07T04:14:23.162Z,49.92
2022-12-07T04:17:26.161Z,49.91
2022-12-07T04:20:30.571Z,49.90
2022-12-07T04:23:33.537Z,49.96
2022-12-07T04:26:36.555Z,49.94
2022-12-07T04:29:39.527Z,49.97
2022-12-07T04:32:42.507Z,49.90
2022-12-07T04:35:46.832Z,49.95
2022-12-07T04:38:50.290Z,49.95
2022-12-07T04:41:53.433Z,49.96
2022-12-07T04:44:56.385Z,49.89
2022-12-07T04:47:59.342Z,49.81
2022-12-07T04:51:04.656Z,49.94
2022-12-07T04:54:07.910Z,49.97
2022-12-07T04:57:10.856Z,49.88
2022-12-07T05:00:14.100Z,50.05
2022-12-07T05:03:17.118Z,50.07
2022-12-07T05:06:21.738Z,50.08
2022-12-07T05:09:24.732Z,50.19
2022-12-07T05:12:27.674Z,50.21
2022-12-07T05:15:30.717Z,50.15
2022-12-07T05:18:33.646Z,50.23
2022-12-07T05:21:38.576Z,50.17
2022-12-07T05:24:41.619Z,49.98
2022-12-07T05:27:44.682Z,50.10
2022-12-07T05:30:47.995Z,50.00
2022-12-07T05:33:51.103Z,49.98
2022-12-07T05:36:55.382Z,50.00
2022-12-07T05:39:58.378Z,49.97
2022-12-07T05:43:04.614Z,50.01
2022-12-07T05:46:08.005Z,50.05
2022-12-07T05:49:11.198Z,49.95
2022-12-07T05:52:15.614Z,49.80
2022-12-07T05:55:18.574Z,49.90
2022-12-07T05:58:39.040Z,49.88
2022-12-07T06:01:42.291Z,49.78
2022-12-07T06:04:47.509Z,49.80
2022-12-07T06:07:52.005Z,49.80
2022-12-07T06:11:14.921Z,49.89
2022-12-07T06:14:16.869Z,49.90
2022-12-07T06:17:19.877Z,49.92
2022-12-07T06:20:23.006Z,49.90
2022-12-07T06:23:27.374Z,49.87
2022-12-07T06:26:30.426Z,49.85
2022-12-07T06:29:33.487Z,49.81
2022-12-07T06:32:38.263Z,49.89
2022-12-07T06:35:41.267Z,49.77
2022-12-07T06:38:45.709Z,49.64
2022-12-07T06:41:48.761Z,49.70
2022-12-07T06:44:51.719Z,49.69
2022-12-07T06:47:54.779Z,49.74
2022-12-07T06:50:57.932Z,49.68
2022-12-07T06:54:02.278Z,49.79
2022-12-07T06:57:05.298Z,49.81
2022-12-07T07:00:09.578Z,49.86
2022-12-07T07:03:12.985Z,49.98
2022-12-07T07:06:16.549Z,50.06
2022-12-07T07:09:21.050Z,50.16
2022-12-07T07:12:24.015Z,50.06
2022-12-07T07:15:27.166Z,50.08
2022-12-07T07:18:30.910Z,50.13
2022-12-07T07:21:33.896Z,50.15
2022-12-07T07:24:38.411Z,50.17
2022-12-07T07:27:41.409Z,50.10
2022-12-07T07:30:44.638Z,50.18
2022-12-07T07:33:48.398Z,50.19
2022-12-07T07:36:51.455Z,50.13
2022-12-07T07:39:55.959Z,50.27
2022-12-07T07:42:59.410Z,50.31
2022-12-07T07:46:02.395Z,50.57
2022-12-07T07:49:05.406Z,50.41
2022-12-07T07:52:08.406Z,50.49
2022-12-07T07:55:13.102Z,50.44
2022-12-07T07:58:16.034Z,50.51
2022-12-07T08:01:20.650Z,50.52
2022-12-07T08:04:23.699Z,50.40
2022-12-07T08:07:26.791Z,50.42
2022-12-07T08:10:33.030Z,50.54
2022-12-07T08:13:36.771Z,50.38
2022-12-07T08:16:40.095Z,50.45
2022-12-07T08:19:43.097Z,50.39
2022-12-07T08:22:46.068Z,50.45
2022-12-07T08:25:50.466Z,50.54
2022-12-07T08:28:54.967Z,50.43
2022-12-07T08:31:58.164Z,50.48
2022-12-07T08:35:01.252Z,50.36
2022-12-07T08:38:04.606Z,50.49
2022-12-07T08:41:09.955Z,50.39
2022-12-07T08:44:12.879Z,50.23
2022-12-07T08:47:15.834Z,50.25
2022-12-07T08:50:19.658Z,50.33
2022-12-07T08:53:23.019Z,50.33
2022-12-07T08:56:27.582Z,50.36
2022-12-07T08:59:31.114Z,50.32
2022-12-07T09:02:34.179Z,50.36
2022-12-07T09:05:37.216Z,50.26
2022-12-07T09:08:43.815Z,50.29
2022-12-07T09:11:48.147Z,50.28
2022-12-07T09:14:51.086Z,50.33
2022-12-07T09:17:54.120Z,50.29
2022-12-07T09:20:58.147Z,50.21
2022-12-07T09:24:01.099Z,50.02
2022-12-07T09:27:05.542Z,50.17
2022-12-07T09:30:09.818Z,50.18
2022-12-07T09:33:12.842Z,50.14
2022-12-07T09:36:15.775Z,50.24
2022-12-07T09:39:18.759Z,50.23
2022-12-07T09:42:30.889Z,50.21
2022-12-07T09:45:37.679Z,50.13
2022-12-07T09:48:41.591Z,50.04
2022-12-07T09:51:44.730Z,50.08
2022-12-07T09:54:50.566Z,50.08
2022-12-07T09:57:56.380Z,50.04
2022-12-07T10:01:02.460Z,49.92
2022-12-07T10:04:15.089Z,49.98
2022-12-07T10:07:18.232Z,49.95
2022-12-07T10:10:26.770Z,50.05
2022-12-07T10:13:39.602Z,49.97
2022-12-07T10:16:43.665Z,50.09
2022-12-07T10:19:46.650Z,49.95
2022-12-07T10:23:01.682Z,49.93
2022-12-07T10:26:23.626Z,50.00
2022-12-07T10:29:32.706Z,49.88
2022-12-07T10:32:37.701Z,49.90
2022-12-07T10:35:45.665Z,49.81
2022-12-07T10:38:51.947Z,49.77
2022-12-07T10:41:57.403Z,49.83
2022-12-07T10:45:16.438Z,49.88
2022-12-07T10:48:29.690Z,49.87
2022-12-07T10:51:41.636Z,49.82
2022-12-07T10:54:54.163Z,49.84
2022-12-07T10:58:26.583Z,49.76
2022-12-07T11:01:36.280Z,49.95
2022-12-07T11:04:53.087Z,49.85
2022-12-07T11:08:06.264Z,49.78
2022-12-07T11:11:14.817Z,49.81
2022-12-07T11:14:27.011Z,49.83
2022-12-07T11:17:38.546Z,49.79
2022-12-07T11:20:48.313Z,49.79
2022-12-07T11:23:59.003Z,49.71
2022-12-07T11:27:13.309Z,49.84
2022-12-07T11:30:21.808Z,49.73
2022-12-07T11:33:32.038Z,49.75
2022-12-07T11:36:40.006Z,49.90
2022-12-07T11:39:48.548Z,49.75
2022-12-07T11:42:59.035Z,49.78
2022-12-07T11:46:06.933Z,49.89
2022-12-07T11:49:21.083Z,49.62
2022-12-07T11:52:32.963Z,49.58
2022-12-07T11:55:44.907Z,49.74
2022-12-07T11:58:54.806Z,49.78
2022-12-07T12:02:04.797Z,49.78
2022-12-07T12:05:17.453Z,49.67
2022-12-07T12:15:50.510Z,49.92
2022-12-07T12:19:08.009Z,49.55
2022-12-07T12:22:19.535Z,49.79
2022-12-07T12:25:25.633Z,49.69
2022-12-07T12:28:35.002Z,49.49
2022-12-07T12:31:42.219Z,49.63
2022-12-07T12:35:04.002Z,49.51
2022-12-07T12:38:35.341Z,49.55
2022-12-07T12:42:09.931Z,49.44
2022-12-07T12:45:23.800Z,49.34
2022-12-07T12:48:32.736Z,49.48
2022-12-07T12:51:40.839Z,49.49
2022-12-07T12:55:03.382Z,49.44
2022-12-07T12:58:38.673Z,49.47
2022-12-07T13:01:44.922Z,49.42
2022-12-07T13:04:54.289Z,49.29
2022-12-07T13:08:01.935Z,49.27
2022-12-07T13:11:21.613Z,49.37
2022-12-07T13:15:02.512Z,49.37
2022-12-07T13:18:25.620Z,49.26
2022-12-07T13:21:45.970Z,49.41
2022-12-07T13:24:49.107Z,49.25
2022-12-07T13:28:03.111Z,49.47
2022-12-07T13:31:15.130Z,49.53
2022-12-07T13:34:33.292Z,49.46
2022-12-07T13:37:38.871Z,49.40
2022-12-07T13:40:42.023Z,49.38
2022-12-07T13:43:48.218Z,49.36
2022-12-07T13:47:00.105Z,49.56
2022-12-07T13:50:03.194Z,49.44
2022-12-07T13:53:14.466Z,49.43
2022-12-07T13:56:17.943Z,49.52
2022-12-07T13:59:24.753Z,49.44
2022-12-07T14:02:34.461Z,49.43
2022-12-07T14:05:39.209Z,49.48
2022-12-07T14:08:42.125Z,49.44
2022-12-07T14:11:45.103Z,49.59
2022-12-07T14:14:50.526Z,49.42
2022-12-07T14:17:54.755Z,49.52
2022-12-07T14:21:08.122Z,49.34
2022-12-07T14:24:16.630Z,49.40
2022-12-07T14:27:21.274Z,49.45
2022-12-07T14:30:28.520Z,49.29
2022-12-07T14:33:31.968Z,49.26
2022-12-07T14:36:34.924Z,49.29
2022-12-07T14:39:37.870Z,49.34
2022-12-07T14:42:42.202Z,49.30
2022-12-07T14:45:47.033Z,49.38
2022-12-07T14:55:39.833Z,49.38
2022-12-07T14:58:43.074Z,49.29
2022-12-07T15:01:47.697Z,49.38
2022-12-07T15:04:50.641Z,49.25
2022-12-07T15:07:54.176Z,49.31
2022-12-07T15:10:57.202Z,49.32
2022-12-07T15:14:13.374Z,49.30
2022-12-07T15:17:28.153Z,49.33
2022-12-07T15:20:32.871Z,49.33
2022-12-07T15:23:36.127Z,49.32
2022-12-07T15:26:40.036Z,49.40
2022-12-07T15:29:43.001Z,49.31
2022-12-07T15:32:51.265Z,49.29
2022-12-07T15:35:54.253Z,49.18
2022-12-07T15:39:13.640Z,49.17
2022-12-07T15:42:17.572Z,49.27
2022-12-07T15:45:19.556Z,49.21
2022-12-07T15:48:28.639Z,49.31
2022-12-07T15:51:32.489Z,49.25
2022-12-07T15:54:35.615Z,49.23
2022-12-07T15:57:39.957Z,49.37
2022-12-07T16:00:43.001Z,49.31
2022-12-07T16:03:47.868Z,49.35
2022-12-07T16:06:51.996Z,49.34
2022-12-07T16:09:55.096Z,49.42
2022-12-07T16:12:58.057Z,49.19
2022-12-07T16:16:05.532Z,49.24
2022-12-07T16:19:10.120Z,49.35
2022-12-07T16:22:13.167Z,49.33
2022-12-07T16:25:16.223Z,49.41
2022-12-07T16:28:19.207Z,49.39
2022-12-07T16:31:24.023Z,49.38
2022-12-07T16:34:28.587Z,49.39
2022-12-07T16:37:31.593Z,49.40
2022-12-07T16:40:34.599Z,49.45
2022-12-07T16:43:37.871Z,49.56
2022-12-07T16:46:41.089Z,49.60
2022-12-07T16:49:46.235Z,49.51
2022-12-07T16:52:49.294Z,49.41
2022-12-07T16:55:52.750Z,49.48
2022-12-07T16:58:55.772Z,49.51
2022-12-07T17:01:58.787Z,49.49
2022-12-07T17:05:03.577Z,49.30
2022-12-07T17:08:07.142Z,49.56
2022-12-07T17:11:14.559Z,49.37
2022-12-07T17:14:34.947Z,49.49
2022-12-07T17:17:37.918Z,49.46
2022-12-07T17:20:42.350Z,49.57
2022-12-07T17:23:45.389Z,49.49
2022-12-07T17:26:49.079Z,49.60
2022-12-07T17:29:52.090Z,49.45
2022-12-07T17:32:55.024Z,49.31
2022-12-07T17:35:59.389Z,49.41
2022-12-07T17:39:03.513Z,49.44
2022-12-07T17:42:24.339Z,49.41
2022-12-07T17:45:27.417Z,49.25
2022-12-07T17:48:30.467Z,49.34
2022-12-07T17:51:52.245Z,49.45
2022-12-07T17:54:55.249Z,49.28
2022-12-07T17:57:58.228Z,49.48
2022-12-07T18:01:01.269Z,49.48
2022-12-07T18:04:04.823Z,49.53
2022-12-07T18:07:09.267Z,49.38
2022-12-07T18:10:12.883Z,49.37
2022-12-07T18:13:38.533Z,49.40
2022-12-07T18:16:42.026Z,49.55
2022-12-07T18:19:45.066Z,49.46
2022-12-07T18:22:49.432Z,49.49
2022-12-07T18:25:52.838Z,49.75
2022-12-07T18:28:56.105Z,49.86
2022-12-07T18:31:59.735Z,49.75
2022-12-07T18:35:03.300Z,49.86
2022-12-07T18:38:07.873Z,49.92
2022-12-07T18:41:12.897Z,50.00
2022-12-07T18:44:16.964Z,50.04
2022-12-07T18:47:19.959Z,50.01
2022-12-07T18:50:23.321Z,49.95
2022-12-07T18:53:28.032Z,49.91
2022-12-07T18:56:31.378Z,50.00
2022-12-07T18:59:49.899Z,50.14
2022-12-07T19:02:54.076Z,50.10
2022-12-07T19:05:58.223Z,50.07
2022-12-07T19:09:03.614Z,50.07
2022-12-07T19:12:07.104Z,50.12
2022-12-07T19:15:12.547Z,50.25
2022-12-07T19:18:15.694Z,50.15
2022-12-07T19:21:18.720Z,50.28
2022-12-07T19:24:23.995Z,50.29
2022-12-07T19:27:27.322Z,50.24
2022-12-07T19:30:30.547Z,50.28
2022-12-07T19:33:33.643Z,50.12
2022-12-07T19:36:37.052Z,50.27
2022-12-07T19:39:43.706Z,50.24
2022-12-07T19:42:46.725Z,50.17
2022-12-07T19:45:50.121Z,50.25
2022-12-07T19:48:53.069Z,50.24
2022-12-07T19:51:57.929Z,50.29
2022-12-07T19:55:02.753Z,50.34
2022-12-07T19:58:05.957Z,50.27
2022-12-07T20:01:09.040Z,50.37
2022-12-07T20:04:16.584Z,50.36
2022-12-07T20:07:19.529Z,50.29
2022-12-07T20:10:26.347Z,50.34
2022-12-07T20:13:32.265Z,50.31
2022-12-07T20:16:35.769Z,50.44
2022-12-07T20:19:39.654Z,50.29
2022-12-07T20:22:42.783Z,50.42
2022-12-07T20:25:47.371Z,50.36
2022-12-07T20:28:50.338Z,50.36
2022-12-07T20:31:54.738Z,50.37
2022-12-07T20:34:57.894Z,50.42
2022-12-07T20:38:01.241Z,50.49
2022-12-07T20:41:07.589Z,50.46
2022-12-07T20:44:10.662Z,50.44
2022-12-07T20:47:13.619Z,50.43
2022-12-07T20:50:16.703Z,50.41
2022-12-07T20:53:19.788Z,50.46
2022-12-07T20:56:28.505Z,50.40
2022-12-07T20:59:34.175Z,50.50
2022-12-07T21:02:43.584Z,50.49
2022-12-07T21:05:50.686Z,50.33
2022-12-07T21:08:58.917Z,50.52
2022-12-07T21:12:03.306Z,50.59
2022-12-07T21:15:07.825Z,50.59
2022-12-07T21:18:10.896Z,50.47
2022-12-07T21:21:16.415Z,50.44
2022-12-07T21:24:19.442Z,50.50
2022-12-07T21:27:24.115Z,50.42
2022-12-07T21:30:29.451Z,50.38
2022-12-07T21:33:40.172Z,50.50
2022-12-07T21:36:43.168Z,50.38
2022-12-07T21:39:46.162Z,50.41
2022-12-07T21:42:54.366Z,50.38
2022-12-07T21:45:57.388Z,50.22
2022-12-07T21:49:02.290Z,50.10
2022-12-07T21:52:05.913Z,49.15
2022-12-07T21:55:09.295Z,48.35
2022-12-07T21:58:13.828Z,47.78
2022-12-07T22:01:18.197Z,47.73
2022-12-07T22:04:22.905Z,47.53
2022-12-07T22:07:25.801Z,47.79
2022-12-07T22:10:31.704Z,47.89
2022-12-07T22:13:52.142Z,47.96
2022-12-07T22:16:55.138Z,47.93
2022-12-07T22:19:58.302Z,47.83
2022-12-07T22:23:01.238Z,47.80
2022-12-07T22:26:06.790Z,47.80
2022-12-07T22:29:11.565Z,47.79
2022-12-07T22:32:46.811Z,47.71
2022-12-07T22:35:37.491Z,47.90
2022-12-07T22:38:41.642Z,47.82
2022-12-07T22:41:44.610Z,47.94
2022-12-07T22:44:49.105Z,47.92
2022-12-07T22:47:52.017Z,48.14
2022-12-07T22:50:55.702Z,48.15
2022-12-07T22:54:00.603Z,48.23
2022-12-07T22:57:03.708Z,48.12
2022-12-07T23:00:09.783Z,48.37
2022-12-07T23:03:13.106Z,48.26
2022-12-07T23:06:17.787Z,48.48
2022-12-07T23:09:20.753Z,48.51
2022-12-07T23:12:41.269Z,48.52
2022-12-07T23:15:45.639Z,48.63
2022-12-07T23:18:48.686Z,48.58
2022-12-07T23:21:52.023Z,48.57
2022-12-07T23:24:54.976Z,48.68
2022-12-07T23:27:57.914Z,48.68
2022-12-07T23:31:06.613Z,48.81
2022-12-07T23:34:11.375Z,48.89
2022-12-07T23:37:14.468Z,48.96
2022-12-07T23:40:17.486Z,48.85
2022-12-07T23:43:20.466Z,49.17
2022-12-07T23:46:26.940Z,49.18
2022-12-07T23:49:29.968Z,49.23
2022-12-07T23:52:33.019Z,49.11
2022-12-07T23:55:35.939Z,49.27
2022-12-07T23:58:38.929Z,49.23
